createdAt,value
2018-02-25T00:01:43.163Z,102919.02
2018-02-25T00:04:12.250Z,102922.22
2018-02-25T00:06:41.141Z,102925.50
2018-02-25T00:09:10.045Z,102922.37
2018-02-25T00:11:38.919Z,102922.17
2018-02-25T00:14:07.808Z,102914.52
2018-02-25T00:16:36.913Z,102914.98
2018-02-25T00:19:05.630Z,102907.66
2018-02-25T00:21:34.670Z,102909.73
2018-02-25T00:24:03.575Z,102907.08
2018-02-25T00:26:32.491Z,102908.19
2018-02-25T00:29:01.369Z,102911.84
2018-02-25T00:31:30.258Z,102906.42
2018-02-25T00:33:58.986Z,102907.17
2018-02-25T00:36:28.030Z,102910.25
2018-02-25T00:38:57.303Z,102913.92
2018-02-25T00:41:26.626Z,102909.19
2018-02-25T00:43:55.517Z,102905.81
2018-02-25T00:46:24.625Z,102901.11
2018-02-25T00:48:53.721Z,102906.84
2018-02-25T00:51:22.586Z,102905.59
2018-02-25T00:53:51.706Z,102908.02
2018-02-25T00:56:20.796Z,102909.11
2018-02-25T00:58:49.691Z,102903.70
2018-02-25T01:01:18.600Z,102899.30
2018-02-25T01:03:47.453Z,102897.59
2018-02-25T01:06:16.378Z,102898.52
2018-02-25T01:08:45.243Z,102898.88
2018-02-25T01:11:14.131Z,102891.80
2018-02-25T01:13:43.297Z,102886.05
2018-02-25T01:16:12.129Z,102888.49
2018-02-25T01:18:41.404Z,102893.34
2018-02-25T01:21:10.306Z,102891.80
2018-02-25T01:23:39.359Z,102883.04
2018-02-25T01:26:08.340Z,102894.17
2018-02-25T01:28:37.121Z,102890.32
2018-02-25T01:31:06.013Z,102889.17
2018-02-25T01:33:42.146Z,102889.23
2018-02-25T01:36:10.926Z,102886.97
2018-02-25T01:38:39.642Z,102887.55
2018-02-25T01:41:09.462Z,102887.94
2018-02-25T01:43:38.257Z,102882.23
2018-02-25T01:46:07.401Z,102881.19
2018-02-25T01:48:36.294Z,102883.23
2018-02-25T01:51:05.754Z,102885.14
2018-02-25T01:53:34.599Z,102886.23
2018-02-25T01:56:03.309Z,102895.55
2018-02-25T01:58:32.268Z,102894.64
2018-02-25T02:01:01.376Z,102895.46
2018-02-25T02:03:30.425Z,102890.16
2018-02-25T02:05:59.565Z,102889.45
2018-02-25T02:08:28.452Z,102884.38
2018-02-25T02:11:03.922Z,102888.08
2018-02-25T02:13:32.987Z,102884.10
2018-02-25T02:16:02.274Z,102880.84
2018-02-25T02:18:30.965Z,102882.71
2018-02-25T02:20:59.869Z,102882.35
2018-02-25T02:23:28.755Z,102889.00
2018-02-25T02:25:57.565Z,102885.36
2018-02-25T02:28:26.702Z,102886.63
2018-02-25T02:30:55.830Z,102891.19
2018-02-25T02:33:24.732Z,102894.67
2018-02-25T02:35:53.638Z,102891.55
2018-02-25T02:38:22.512Z,102889.64
2018-02-25T02:40:51.317Z,102887.57
2018-02-25T02:43:20.124Z,102894.55
2018-02-25T02:45:48.970Z,102896.03
2018-02-25T02:48:18.052Z,102897.83
2018-02-25T02:50:46.966Z,102892.70
2018-02-25T02:53:15.860Z,102896.00
2018-02-25T02:55:44.954Z,102895.25
2018-02-25T02:58:14.043Z,102895.95
2018-02-25T03:00:42.871Z,102901.50
2018-02-25T03:03:11.654Z,102893.61
2018-02-25T03:05:40.686Z,102894.27
2018-02-25T03:08:09.582Z,102892.27
2018-02-25T03:10:38.520Z,102895.52
2018-02-25T03:13:07.388Z,102895.85
2018-02-25T03:15:36.242Z,102892.84
2018-02-25T03:18:05.161Z,102889.72
2018-02-25T03:20:33.967Z,102897.37
2018-02-25T03:23:02.741Z,102901.04
2018-02-25T03:25:31.587Z,102902.31
2018-02-25T03:28:00.698Z,102898.95
2018-02-25T03:30:29.621Z,102890.62
2018-02-25T03:32:58.385Z,102894.91
2018-02-25T03:35:27.392Z,102890.55
2018-02-25T03:37:56.271Z,102895.95
2018-02-25T03:40:25.170Z,102893.40
2018-02-25T03:42:54.062Z,102895.02
2018-02-25T03:45:23.154Z,102893.94
2018-02-25T03:47:51.905Z,102887.84
2018-02-25T03:50:20.709Z,102892.28
2018-02-25T03:52:49.626Z,102884.11
2018-02-25T03:55:18.734Z,102881.41
2018-02-25T03:57:47.336Z,102888.66
2018-02-25T04:00:16.212Z,102885.73
2018-02-25T04:02:45.188Z,102885.57
2018-02-25T04:05:14.089Z,102884.66
2018-02-25T04:07:42.978Z,102889.79
2018-02-25T04:10:11.854Z,102883.59
2018-02-25T04:12:40.779Z,102890.75
2018-02-25T04:15:09.638Z,102879.39
2018-02-25T04:17:39.355Z,102885.14
2018-02-25T04:20:08.498Z,102890.09
2018-02-25T04:22:37.325Z,102894.25
2018-02-25T04:25:06.200Z,102893.70
2018-02-25T04:27:35.324Z,102893.22
2018-02-25T04:30:04.210Z,102893.28
2018-02-25T04:32:32.975Z,102889.78
2018-02-25T04:35:01.964Z,102889.42
2018-02-25T04:37:30.879Z,102894.52
2018-02-25T04:39:59.781Z,102883.55
2018-02-25T04:42:28.875Z,102888.84
2018-02-25T04:44:57.646Z,102888.48
2018-02-25T04:47:29.520Z,102888.26
2018-02-25T04:49:58.266Z,102889.20
2018-02-25T04:52:27.011Z,102886.19
2018-02-25T04:54:56.402Z,102884.03
2018-02-25T04:57:25.480Z,102883.02
2018-02-25T04:59:54.374Z,102881.98
2018-02-25T05:05:18.720Z,102884.27
2018-02-25T05:07:47.162Z,102883.24
2018-02-25T05:10:15.601Z,102881.71
2018-02-25T05:12:44.092Z,102875.95
2018-02-25T05:15:12.687Z,102882.17
2018-02-25T05:17:44.055Z,102884.70
2018-02-25T05:20:12.507Z,102880.98
2018-02-25T05:22:40.932Z,102886.72
2018-02-25T05:25:09.564Z,102880.72
2018-02-25T05:27:38.075Z,102883.09
2018-02-25T05:30:06.769Z,102876.91
2018-02-25T05:32:35.311Z,102880.31
2018-02-25T05:35:03.767Z,102875.22
2018-02-25T05:37:32.202Z,102892.02
2018-02-25T05:40:00.703Z,102890.85
2018-02-25T05:42:29.235Z,102890.59
2018-02-25T05:44:57.687Z,102892.71
2018-02-25T05:47:26.174Z,102892.78
2018-02-25T05:49:54.621Z,102893.14
2018-02-25T05:52:23.110Z,102892.83
2018-02-25T05:54:51.672Z,102890.41
2018-02-25T05:57:20.206Z,102899.49
2018-02-25T05:59:48.785Z,102900.61
2018-02-25T06:02:17.312Z,102901.74
2018-02-25T06:04:45.843Z,102907.95
2018-02-25T06:07:14.416Z,102902.15
2018-02-25T06:09:42.798Z,102913.68
2018-02-25T06:12:11.332Z,102912.35
2018-02-25T06:14:39.859Z,102910.16
2018-02-25T06:17:08.580Z,102911.74
2018-02-25T06:19:37.003Z,102913.97
2018-02-25T06:22:05.600Z,102912.41
2018-02-25T06:24:34.202Z,102911.91
2018-02-25T06:27:02.712Z,102912.86
2018-02-25T06:29:31.194Z,102914.08
2018-02-25T06:31:59.699Z,102911.11
2018-02-25T06:34:28.324Z,102913.72
2018-02-25T06:36:56.795Z,102912.58
2018-02-25T06:39:25.219Z,102911.16
2018-02-25T06:41:53.707Z,102907.52
2018-02-25T06:44:22.114Z,102904.55
2018-02-25T06:46:50.953Z,102908.84
2018-02-25T06:49:19.451Z,102909.95
2018-02-25T06:51:47.956Z,102914.20
2018-02-25T06:54:16.851Z,102911.20
2018-02-25T06:56:45.487Z,102914.09
2018-02-25T06:59:13.955Z,102915.13
2018-02-25T07:01:42.452Z,102916.32
2018-02-25T07:04:10.875Z,102920.95
2018-02-25T07:06:39.497Z,102912.25
2018-02-25T07:09:08.300Z,102912.73
2018-02-25T07:11:36.754Z,102917.98
2018-02-25T07:14:05.453Z,102920.28
2018-02-25T07:16:35.007Z,102923.99
2018-02-25T07:19:03.614Z,102922.53
2018-02-25T07:21:32.111Z,102922.20
2018-02-25T07:24:03.715Z,102922.14
2018-02-25T07:26:32.408Z,102915.23
2018-02-25T07:29:01.026Z,102920.62
2018-02-25T07:31:29.620Z,102913.80
2018-02-25T07:33:58.218Z,102921.89
2018-02-25T07:36:26.736Z,102914.61
2018-02-25T07:38:55.222Z,102922.75
2018-02-25T07:41:23.869Z,102918.42
2018-02-25T07:43:52.880Z,102916.27
2018-02-25T07:46:21.526Z,102912.45
2018-02-25T07:48:49.978Z,102906.77
2018-02-25T07:51:18.698Z,102916.64
2018-02-25T07:53:47.163Z,102915.16
2018-02-25T07:56:15.668Z,102920.52
2018-02-25T07:58:44.179Z,102920.80
2018-02-25T08:01:13.012Z,102918.06
2018-02-25T08:03:43.140Z,102925.20
2018-02-25T08:06:13.105Z,102917.96
2018-02-25T08:08:41.669Z,102923.12
2018-02-25T08:11:13.673Z,102914.96
2018-02-25T08:13:42.227Z,102912.78
2018-02-25T08:16:10.947Z,102919.94
2018-02-25T08:18:40.699Z,102912.61
2018-02-25T08:21:09.464Z,102920.27
2018-02-25T08:23:38.780Z,102911.82
2018-02-25T08:26:07.638Z,102912.54
2018-02-25T08:28:36.102Z,102914.50
2018-02-25T08:31:04.640Z,102910.81
2018-02-25T08:33:33.287Z,102906.32
2018-02-25T08:36:01.937Z,102912.12
2018-02-25T08:38:30.851Z,102906.66
2018-02-25T08:40:59.506Z,102906.27
2018-02-25T08:43:28.226Z,102913.03
2018-02-25T08:45:56.718Z,102913.39
2018-02-25T08:48:26.071Z,102915.21
2018-02-25T08:50:57.675Z,102912.35
2018-02-25T08:53:28.017Z,102909.83
2018-02-25T08:56:00.298Z,102916.13
2018-02-25T08:58:32.015Z,102911.45
2018-02-25T09:01:01.759Z,102904.77
2018-02-25T09:03:36.892Z,102907.63
2018-02-25T09:08:48.663Z,102908.62
2018-02-25T09:11:17.547Z,102905.34
2018-02-25T09:13:47.406Z,102905.37
2018-02-25T09:16:16.268Z,102899.72
2018-02-25T09:18:45.028Z,102903.92
2018-02-25T09:21:13.972Z,102899.27
2018-02-25T09:23:42.544Z,102902.16
2018-02-25T09:26:12.250Z,102900.69
2018-02-25T09:28:40.986Z,102902.80
2018-02-25T09:31:09.548Z,102900.62
2018-02-25T09:33:38.472Z,102898.66
2018-02-25T09:36:09.058Z,102895.14
2018-02-25T09:38:38.655Z,102891.44
2018-02-25T09:41:07.484Z,102887.66
2018-02-25T09:43:36.471Z,102883.37
2018-02-25T09:46:04.963Z,102873.95
2018-02-25T09:48:33.696Z,102874.82
2018-02-25T09:51:02.264Z,102869.11
2018-02-25T09:53:30.828Z,102871.61
2018-02-25T09:56:03.560Z,102864.23
2018-02-25T09:58:33.272Z,102863.89
2018-02-25T10:01:03.464Z,102864.25
2018-02-25T10:03:34.551Z,102859.19
2018-02-25T10:06:03.306Z,102857.51
2018-02-25T10:08:32.783Z,102857.84
2018-02-25T10:11:01.328Z,102848.16
2018-02-25T10:13:30.425Z,102849.30
2018-02-25T10:16:01.121Z,102851.20
2018-02-25T10:18:29.894Z,102841.42
2018-02-25T10:20:58.639Z,102840.02
2018-02-25T10:23:27.170Z,102845.55
2018-02-25T10:25:56.293Z,102834.72
2018-02-25T10:28:25.583Z,102826.06
2018-02-25T10:30:54.480Z,102824.99
2018-02-25T10:33:25.214Z,102814.42
2018-02-25T10:35:54.511Z,102817.31
2018-02-25T10:38:25.686Z,102816.08
2018-02-25T10:40:54.373Z,102813.19
2018-02-25T10:43:31.705Z,102803.14
2018-02-25T10:46:00.923Z,102807.25
2018-02-25T10:48:32.841Z,102806.11
2018-02-25T10:51:04.737Z,102802.91
2018-02-25T10:53:33.810Z,102800.79
2018-02-25T10:56:03.709Z,102804.37
2018-02-25T10:58:33.776Z,102795.52
2018-02-25T11:01:09.617Z,102788.39
2018-02-25T11:03:44.313Z,102786.79
2018-02-25T11:06:15.283Z,102781.37
2018-02-25T11:08:44.305Z,102776.25
2018-02-25T11:11:14.008Z,102759.27
2018-02-25T11:13:44.736Z,102758.43
2018-02-25T11:16:15.440Z,102758.08
2018-02-25T11:18:47.767Z,102759.30
2018-02-25T11:21:19.269Z,102747.51
2018-02-25T11:23:50.515Z,102745.47
2018-02-25T11:26:20.075Z,102737.59
2018-02-25T11:28:50.453Z,102732.90
2018-02-25T11:31:31.882Z,102733.89
2018-02-25T11:34:04.615Z,102725.89
2018-02-25T11:36:38.384Z,102733.09
2018-02-25T11:39:08.319Z,102732.09
2018-02-25T11:41:37.039Z,102728.52
2018-02-25T11:44:07.971Z,102709.06
2018-02-25T11:46:50.747Z,102712.09
2018-02-25T11:49:29.405Z,102708.27
2018-02-25T11:52:04.781Z,102724.72
2018-02-25T11:54:46.253Z,102716.66
2018-02-25T11:57:17.550Z,102723.41
2018-02-25T11:59:49.513Z,102722.17
2018-02-25T12:02:21.770Z,102713.08
2018-02-25T12:04:51.427Z,102714.48
2018-02-25T12:07:23.876Z,102720.51
2018-02-25T12:09:53.721Z,102704.16
2018-02-25T12:12:23.410Z,102691.69
2018-02-25T12:14:59.271Z,102700.69
2018-02-25T12:17:22.417Z,102707.42
2018-02-25T12:19:51.036Z,102706.39
2018-02-25T12:22:19.796Z,102708.21
2018-02-25T12:24:49.239Z,102701.98
2018-02-25T12:27:18.556Z,102705.25
2018-02-25T12:29:47.866Z,102710.47
2018-02-25T12:32:16.543Z,102709.80
2018-02-25T12:34:45.456Z,102706.52
2018-02-25T12:37:17.292Z,102712.47
2018-02-25T12:39:45.869Z,102704.40
2018-02-25T12:42:14.762Z,102703.50
2018-02-25T12:44:44.527Z,102712.95
2018-02-25T12:47:19.118Z,102701.14
2018-02-25T12:49:48.602Z,102691.55
2018-02-25T12:52:19.440Z,102689.65
2018-02-25T12:54:48.132Z,102687.63
2018-02-25T12:57:16.968Z,102684.13
2018-02-25T12:59:48.234Z,102681.47
2018-02-25T13:02:17.610Z,102676.73
2018-02-25T13:04:50.885Z,102683.50
2018-02-25T13:07:21.362Z,102673.22
2018-02-25T13:09:50.161Z,102672.25
2018-02-25T13:12:19.001Z,102673.45
2018-02-25T13:14:47.959Z,102676.91
2018-02-25T13:17:16.714Z,102660.20
2018-02-25T13:19:46.207Z,102668.39
2018-02-25T13:22:15.203Z,102671.20
2018-02-25T13:24:44.238Z,102666.11
2018-02-25T13:27:23.979Z,102662.98
2018-02-25T13:30:00.328Z,102661.23
2018-02-25T13:32:30.097Z,102660.53
2018-02-25T13:35:00.920Z,102656.97
2018-02-25T13:37:30.317Z,102657.36
2018-02-25T13:40:02.329Z,102657.06
2018-02-25T13:42:32.677Z,102660.31
2018-02-25T13:45:01.917Z,102649.19
2018-02-25T13:47:31.631Z,102657.68
2018-02-25T13:50:01.138Z,102646.39
2018-02-25T13:52:32.079Z,102649.51
2018-02-25T13:55:01.721Z,102645.52
2018-02-25T13:57:32.881Z,102649.52
2018-02-25T14:00:04.903Z,102649.17
2018-02-25T14:02:36.847Z,102644.81
2018-02-25T14:05:09.617Z,102642.23
2018-02-25T14:07:43.063Z,102635.78
2018-02-25T14:10:18.068Z,102636.62
2018-02-25T14:12:47.349Z,102635.77
2018-02-25T14:15:17.224Z,102633.59
2018-02-25T14:17:54.837Z,102633.63
2018-02-25T14:20:24.355Z,102636.82
2018-02-25T14:22:52.915Z,102636.31
2018-02-25T14:25:22.446Z,102634.16
2018-02-25T14:27:51.220Z,102635.00
2018-02-25T14:30:20.934Z,102629.80
2018-02-25T14:32:49.980Z,102628.38
2018-02-25T14:35:19.588Z,102620.14
2018-02-25T14:37:49.462Z,102621.17
2018-02-25T14:40:19.710Z,102620.09
2018-02-25T14:42:50.165Z,102617.55
2018-02-25T14:45:19.927Z,102612.53
2018-02-25T14:47:49.542Z,102607.69
2018-02-25T14:50:19.602Z,102611.51
2018-02-25T14:52:49.317Z,102604.98
2018-02-25T14:55:21.531Z,102612.28
2018-02-25T14:57:54.653Z,102605.28
2018-02-25T15:00:23.794Z,102598.45
2018-02-25T15:02:53.738Z,102602.45
2018-02-25T15:05:22.858Z,102605.70
2018-02-25T15:07:52.996Z,102598.06
2018-02-25T15:10:29.522Z,102600.92
2018-02-25T15:13:02.094Z,102598.17
2018-02-25T15:15:32.099Z,102593.08
2018-02-25T15:18:15.064Z,102603.44
2018-02-25T15:20:53.007Z,102595.23
2018-02-25T15:23:30.803Z,102597.73
2018-02-25T15:26:10.458Z,102595.62
2018-02-25T15:28:49.175Z,102592.59
2018-02-25T15:31:25.846Z,102588.16
2018-02-25T15:34:02.344Z,102595.63
2018-02-25T15:36:37.780Z,102596.76
2018-02-25T15:39:25.763Z,102596.02
2018-02-25T15:41:57.526Z,102595.05
2018-02-25T15:44:26.360Z,102591.08
2018-02-25T15:46:56.445Z,102591.86
2018-02-25T15:49:26.091Z,102592.72
2018-02-25T15:51:55.718Z,102589.08
2018-02-25T15:54:28.017Z,102586.39
2018-02-25T15:56:59.221Z,102593.66
2018-02-25T15:59:34.895Z,102588.26
2018-02-25T16:02:05.618Z,102588.20
2018-02-25T16:04:35.111Z,102593.52
2018-02-25T16:07:05.475Z,102591.13
2018-02-25T16:09:34.489Z,102595.80
2018-02-25T16:12:03.607Z,102591.98
2018-02-25T16:14:33.803Z,102597.33
2018-02-25T16:17:04.672Z,102598.27
2018-02-25T16:19:34.938Z,102601.88
2018-02-25T16:22:07.222Z,102596.14
2018-02-25T16:24:36.707Z,102597.34
2018-02-25T16:27:06.588Z,102603.08
2018-02-25T16:29:37.118Z,102606.72
2018-02-25T16:32:09.981Z,102604.60
2018-02-25T16:34:40.986Z,102611.98
2018-02-25T16:37:10.692Z,102614.35
2018-02-25T16:39:40.901Z,102607.70
2018-02-25T16:42:10.796Z,102612.30
2018-02-25T16:44:40.037Z,102602.05
2018-02-25T16:47:12.438Z,102610.11
2018-02-25T16:49:44.956Z,102609.44
2018-02-25T16:52:16.403Z,102610.15
2018-02-25T16:54:45.183Z,102614.95
2018-02-25T16:57:16.296Z,102614.40
2018-02-25T16:59:50.713Z,102613.80
2018-02-25T17:02:20.527Z,102612.29
2018-02-25T17:04:51.728Z,102616.91
2018-02-25T17:07:23.145Z,102626.63
2018-02-25T17:09:52.108Z,102624.36
2018-02-25T17:12:21.196Z,102621.31
2018-02-25T17:14:53.463Z,102626.58
2018-02-25T17:17:22.905Z,102625.59
2018-02-25T17:19:51.766Z,102626.92
2018-02-25T17:22:21.057Z,102626.80
2018-02-25T17:24:50.930Z,102630.75
2018-02-25T17:27:20.534Z,102627.42
2018-02-25T17:29:51.452Z,102629.69
2018-02-25T17:32:20.120Z,102631.39
2018-02-25T17:34:50.234Z,102638.38
2018-02-25T17:37:22.197Z,102634.92
2018-02-25T17:39:51.683Z,102637.40
2018-02-25T17:42:20.878Z,102630.25
2018-02-25T17:44:50.054Z,102634.64
2018-02-25T17:47:21.436Z,102633.56
2018-02-25T17:49:50.584Z,102631.15
2018-02-25T17:52:20.258Z,102633.77
2018-02-25T17:54:49.901Z,102634.69
2018-02-25T17:57:18.651Z,102628.88
2018-02-25T17:59:51.469Z,102629.97
2018-02-25T18:02:21.569Z,102630.09
2018-02-25T18:04:50.794Z,102630.96
2018-02-25T18:07:20.778Z,102632.30
2018-02-25T18:09:50.264Z,102629.61
2018-02-25T18:12:21.890Z,102633.89
2018-02-25T18:14:52.811Z,102624.31
2018-02-25T18:17:22.392Z,102630.13
2018-02-25T18:19:53.654Z,102629.77
2018-02-25T18:22:23.205Z,102630.89
2018-02-25T18:24:52.651Z,102633.13
2018-02-25T18:27:22.118Z,102631.93
2018-02-25T18:29:53.085Z,102636.11
2018-02-25T18:32:25.754Z,102635.81
2018-02-25T18:34:54.974Z,102636.23
2018-02-25T18:37:25.696Z,102640.09
2018-02-25T18:39:58.074Z,102634.23
2018-02-25T18:42:28.298Z,102637.80
2018-02-25T18:44:56.933Z,102641.69
2018-02-25T18:47:27.198Z,102646.53
2018-02-25T18:50:00.081Z,102646.45
2018-02-25T18:52:33.537Z,102646.45
2018-02-25T18:55:03.939Z,102656.55
2018-02-25T18:57:32.752Z,102649.81
2018-02-25T19:00:06.664Z,102658.45
2018-02-25T19:02:35.490Z,102660.47
2018-02-25T19:05:05.609Z,102661.28
2018-02-25T19:07:37.231Z,102655.34
2018-02-25T19:10:06.056Z,102660.49
2018-02-25T19:12:38.392Z,102655.50
2018-02-25T19:15:08.845Z,102661.28
2018-02-25T19:17:39.933Z,102661.48
2018-02-25T19:20:11.234Z,102658.05
2018-02-25T19:22:42.294Z,102652.98
2018-02-25T19:25:13.734Z,102653.55
2018-02-25T19:27:45.562Z,102655.42
2018-02-25T19:30:16.326Z,102661.29
2018-02-25T19:32:45.727Z,102657.50
2018-02-25T19:35:14.929Z,102662.62
2018-02-25T19:38:46.156Z,102667.10
2018-02-25T19:41:20.190Z,102662.94
2018-02-25T19:43:53.948Z,102670.08
2018-02-25T19:46:27.327Z,102663.05
2018-02-25T19:48:57.021Z,102663.97
2018-02-25T19:51:26.273Z,102658.68
2018-02-25T19:53:56.133Z,102660.97
2018-02-25T19:56:25.470Z,102666.99
2018-02-25T19:58:57.438Z,102664.15
2018-02-25T20:01:28.362Z,102660.39
2018-02-25T20:03:57.183Z,102663.27
2018-02-25T20:06:27.136Z,102665.34
2018-02-25T20:08:58.884Z,102660.50
2018-02-25T20:11:29.246Z,102662.95
2018-02-25T20:13:59.486Z,102669.27
2018-02-25T20:16:28.514Z,102672.28
2018-02-25T20:18:57.729Z,102668.51
2018-02-25T20:21:29.075Z,102674.82
2018-02-25T20:23:58.119Z,102668.80
2018-02-25T20:26:27.832Z,102664.00
2018-02-25T20:29:02.264Z,102667.17
2018-02-25T20:31:33.887Z,102663.05
2018-02-25T20:34:06.550Z,102659.58
2018-02-25T20:36:38.422Z,102664.28
2018-02-25T20:39:10.108Z,102666.39
2018-02-25T20:41:43.510Z,102659.67
2018-02-25T20:44:17.792Z,102668.61
2018-02-25T20:46:49.499Z,102665.27
2018-02-25T20:49:19.187Z,102663.63
2018-02-25T20:51:48.178Z,102667.81
2018-02-25T20:54:17.304Z,102667.73
2018-02-25T20:56:47.872Z,102667.86
2018-02-25T20:59:18.442Z,102665.09
2018-02-25T21:01:48.764Z,102668.14
2018-02-25T21:04:19.180Z,102663.48
2018-02-25T21:07:00.335Z,102669.91
2018-02-25T21:09:36.702Z,102663.08
2018-02-25T21:12:05.695Z,102660.82
2018-02-25T21:14:35.047Z,102670.15
2018-02-25T21:17:03.823Z,102664.73
2018-02-25T21:19:35.181Z,102661.86
2018-02-25T21:22:05.366Z,102664.83
2018-02-25T21:24:35.018Z,102672.03
2018-02-25T21:27:04.723Z,102667.56
2018-02-25T21:29:33.951Z,102676.66
2018-02-25T21:32:02.965Z,102677.33
2018-02-25T21:34:31.530Z,102673.55
2018-02-25T21:37:02.716Z,102673.61
2018-02-25T21:39:31.719Z,102672.97
2018-02-25T21:42:00.654Z,102675.89
2018-02-25T21:44:29.548Z,102680.03
2018-02-25T21:47:00.959Z,102683.61
2018-02-25T21:49:29.776Z,102676.23
2018-02-25T21:51:58.501Z,102676.78
2018-02-25T21:54:31.131Z,102684.01
2018-02-25T21:59:06.769Z,102679.36
2018-02-25T22:01:41.728Z,102676.40
2018-02-25T22:04:13.536Z,102682.68
2018-02-25T22:06:44.132Z,102680.38
2018-02-25T22:09:13.366Z,102681.28
2018-02-25T22:11:42.342Z,102673.22
2018-02-25T22:14:12.413Z,102668.79
2018-02-25T22:16:41.699Z,102669.22
2018-02-25T22:19:10.297Z,102666.72
2018-02-25T22:21:39.176Z,102661.23
2018-02-25T22:24:07.693Z,102659.86
2018-02-25T22:26:36.287Z,102659.31
2018-02-25T22:29:05.046Z,102653.89
2018-02-25T22:31:33.784Z,102654.27
2018-02-25T22:34:03.369Z,102652.80
2018-02-25T22:36:32.191Z,102654.83
2018-02-25T22:39:00.722Z,102653.63
2018-02-25T22:41:29.797Z,102654.41
2018-02-25T22:43:59.796Z,102656.61
2018-02-25T22:46:28.403Z,102660.53
2018-02-25T22:48:56.903Z,102656.45
2018-02-25T22:51:25.424Z,102661.69
2018-02-25T22:53:54.820Z,102667.78
2018-02-25T22:56:23.537Z,102664.09
2018-02-25T22:58:52.532Z,102662.39
2018-02-25T23:01:22.002Z,102666.66
2018-02-25T23:03:51.643Z,102660.06
2018-02-25T23:06:20.292Z,102668.88
2018-02-25T23:08:48.813Z,102669.75
2018-02-25T23:11:17.280Z,102664.83
2018-02-25T23:13:46.107Z,102674.25
2018-02-25T23:16:15.336Z,102666.45
2018-02-25T23:18:43.819Z,102668.10
2018-02-25T23:21:12.348Z,102667.08
2018-02-25T23:23:40.790Z,102674.58
2018-02-25T23:26:09.802Z,102673.03
2018-02-25T23:28:38.626Z,102670.75
2018-02-25T23:31:07.167Z,102670.13
2018-02-25T23:33:35.608Z,102667.69
2018-02-25T23:36:04.165Z,102673.36
2018-02-25T23:38:39.671Z,102666.73
2018-02-25T23:41:11.245Z,102668.30
2018-02-25T23:43:39.969Z,102661.72
2018-02-25T23:46:08.615Z,102664.90
2018-02-25T23:48:37.314Z,102666.20
2018-02-25T23:51:05.863Z,102664.89
2018-02-25T23:53:34.579Z,102672.72
2018-02-25T23:56:03.323Z,102668.73
2018-02-25T23:58:31.832Z,102670.73
